sensor_id;sensor_type;location;lat;lon;timestamp;temperature;humidity
34989;DHT22;21192;40.182;44.516;2023-07-09T00:01:59;24.10;88.00
34989;DHT22;21192;40.182;44.516;2023-07-09T00:04:25;24.10;88.30
34989;DHT22;21192;40.182;44.516;2023-07-09T00:06:51;24.10;88.10
34989;DHT22;21192;40.182;44.516;2023-07-09T00:09:19;24.10;87.60
34989;DHT22;21192;40.182;44.516;2023-07-09T00:11:46;24.00;87.30
34989;DHT22;21192;40.182;44.516;2023-07-09T00:14:13;24.00;87.30
34989;DHT22;21192;40.182;44.516;2023-07-09T00:16:41;24.00;87.40
34989;DHT22;21192;40.182;44.516;2023-07-09T00:19:16;24.00;87.40
34989;DHT22;21192;40.182;44.516;2023-07-09T00:21:43;24.00;87.50
34989;DHT22;21192;40.182;44.516;2023-07-09T00:24:11;23.90;87.60
34989;DHT22;21192;40.182;44.516;2023-07-09T00:26:38;23.90;87.80
34989;DHT22;21192;40.182;44.516;2023-07-09T00:29:10;23.90;87.90
34989;DHT22;21192;40.182;44.516;2023-07-09T00:31:36;23.80;88.10
34989;DHT22;21192;40.182;44.516;2023-07-09T00:34:15;23.80;88.50
34989;DHT22;21192;40.182;44.516;2023-07-09T00:36:47;23.70;89.00
34989;DHT22;21192;40.182;44.516;2023-07-09T00:39:17;23.70;89.40
34989;DHT22;21192;40.182;44.516;2023-07-09T00:41:43;23.70;89.70
34989;DHT22;21192;40.182;44.516;2023-07-09T00:44:30;23.70;90.00
34989;DHT22;21192;40.182;44.516;2023-07-09T00:49:37;23.60;90.30
34989;DHT22;21192;40.182;44.516;2023-07-09T00:52:26;23.60;90.50
34989;DHT22;21192;40.182;44.516;2023-07-09T00:54:59;23.60;90.70
34989;DHT22;21192;40.182;44.516;2023-07-09T00:57:26;23.60;90.80
34989;DHT22;21192;40.182;44.516;2023-07-09T01:00:08;23.60;91.20
34989;DHT22;21192;40.182;44.516;2023-07-09T01:02:37;23.60;91.30
34989;DHT22;21192;40.182;44.516;2023-07-09T01:05:04;23.60;91.20
34989;DHT22;21192;40.182;44.516;2023-07-09T01:07:31;23.60;91.30
34989;DHT22;21192;40.182;44.516;2023-07-09T01:09:58;23.60;91.40
34989;DHT22;21192;40.182;44.516;2023-07-09T01:12:24;23.50;91.50
34989;DHT22;21192;40.182;44.516;2023-07-09T01:14:53;23.50;91.50
34989;DHT22;21192;40.182;44.516;2023-07-09T01:17:20;23.50;91.70
34989;DHT22;21192;40.182;44.516;2023-07-09T01:19:50;23.50;91.70
34989;DHT22;21192;40.182;44.516;2023-07-09T01:22:18;23.50;91.70
34989;DHT22;21192;40.182;44.516;2023-07-09T01:24:59;23.50;91.80
34989;DHT22;21192;40.182;44.516;2023-07-09T01:27:37;23.50;92.10
34989;DHT22;21192;40.182;44.516;2023-07-09T01:30:30;23.50;92.10
34989;DHT22;21192;40.182;44.516;2023-07-09T01:32:57;23.40;92.20
34989;DHT22;21192;40.182;44.516;2023-07-09T01:35:24;23.40;92.50
34989;DHT22;21192;40.182;44.516;2023-07-09T01:37:52;23.40;92.60
34989;DHT22;21192;40.182;44.516;2023-07-09T01:40:19;23.40;92.80
34989;DHT22;21192;40.182;44.516;2023-07-09T01:42:45;23.30;93.00
34989;DHT22;21192;40.182;44.516;2023-07-09T01:45:12;23.30;93.20
34989;DHT22;21192;40.182;44.516;2023-07-09T01:47:39;23.30;93.20
34989;DHT22;21192;40.182;44.516;2023-07-09T01:50:08;23.30;93.20
34989;DHT22;21192;40.182;44.516;2023-07-09T01:52:37;23.20;93.20
34989;DHT22;21192;40.182;44.516;2023-07-09T01:55:04;23.30;93.30
34989;DHT22;21192;40.182;44.516;2023-07-09T01:57:30;23.30;93.30
34989;DHT22;21192;40.182;44.516;2023-07-09T02:00:11;23.40;93.20
34989;DHT22;21192;40.182;44.516;2023-07-09T02:02:40;23.40;93.30
34989;DHT22;21192;40.182;44.516;2023-07-09T02:05:10;23.50;93.20
34989;DHT22;21192;40.182;44.516;2023-07-09T02:07:36;23.50;93.20
34989;DHT22;21192;40.182;44.516;2023-07-09T02:10:03;23.50;93.30
34989;DHT22;21192;40.182;44.516;2023-07-09T02:12:29;23.50;93.30
34989;DHT22;21192;40.182;44.516;2023-07-09T02:14:54;23.50;93.30
34989;DHT22;21192;40.182;44.516;2023-07-09T02:17:20;23.60;93.30
34989;DHT22;21192;40.182;44.516;2023-07-09T02:19:46;23.60;93.10
34989;DHT22;21192;40.182;44.516;2023-07-09T02:22:12;23.70;93.00
34989;DHT22;21192;40.182;44.516;2023-07-09T02:24:38;23.80;92.90
34989;DHT22;21192;40.182;44.516;2023-07-09T02:27:06;23.80;92.80
34989;DHT22;21192;40.182;44.516;2023-07-09T02:29:33;23.90;92.70
34989;DHT22;21192;40.182;44.516;2023-07-09T02:32:00;24.00;92.60
34989;DHT22;21192;40.182;44.516;2023-07-09T02:34:27;24.10;92.50
34989;DHT22;21192;40.182;44.516;2023-07-09T02:36:54;24.20;92.20
34989;DHT22;21192;40.182;44.516;2023-07-09T02:39:21;24.60;91.80
34989;DHT22;21192;40.182;44.516;2023-07-09T02:41:47;25.20;90.90
34989;DHT22;21192;40.182;44.516;2023-07-09T02:44:13;25.70;89.70
34989;DHT22;21192;40.182;44.516;2023-07-09T02:46:40;26.50;86.40
34989;DHT22;21192;40.182;44.516;2023-07-09T02:49:06;27.30;82.00
34989;DHT22;21192;40.182;44.516;2023-07-09T02:51:33;28.10;78.30
34989;DHT22;21192;40.182;44.516;2023-07-09T02:54:00;28.80;74.50
34989;DHT22;21192;40.182;44.516;2023-07-09T02:56:27;29.70;71.40
34989;DHT22;21192;40.182;44.516;2023-07-09T02:58:54;30.30;68.90
34989;DHT22;21192;40.182;44.516;2023-07-09T03:01:20;31.10;66.50
34989;DHT22;21192;40.182;44.516;2023-07-09T03:03:57;31.90;64.00
34989;DHT22;21192;40.182;44.516;2023-07-09T03:06:27;32.50;61.00
34989;DHT22;21192;40.182;44.516;2023-07-09T03:08:53;33.20;59.40
34989;DHT22;21192;40.182;44.516;2023-07-09T03:11:19;33.80;57.60
34989;DHT22;21192;40.182;44.516;2023-07-09T03:13:47;34.40;55.90
34989;DHT22;21192;40.182;44.516;2023-07-09T03:16:13;35.10;54.50
34989;DHT22;21192;40.182;44.516;2023-07-09T03:18:39;35.50;53.30
34989;DHT22;21192;40.182;44.516;2023-07-09T03:21:05;36.00;52.10
34989;DHT22;21192;40.182;44.516;2023-07-09T03:23:31;36.70;51.10
34989;DHT22;21192;40.182;44.516;2023-07-09T03:25:57;37.10;50.00
34989;DHT22;21192;40.182;44.516;2023-07-09T03:28:25;37.60;49.00
34989;DHT22;21192;40.182;44.516;2023-07-09T03:30:53;38.10;48.00
34989;DHT22;21192;40.182;44.516;2023-07-09T03:33:20;38.60;47.10
34989;DHT22;21192;40.182;44.516;2023-07-09T03:35:46;39.10;46.20
34989;DHT22;21192;40.182;44.516;2023-07-09T03:38:12;39.70;45.30
34989;DHT22;21192;40.182;44.516;2023-07-09T03:40:38;40.30;44.30
34989;DHT22;21192;40.182;44.516;2023-07-09T03:43:05;40.80;43.30
34989;DHT22;21192;40.182;44.516;2023-07-09T03:45:32;41.20;42.70
34989;DHT22;21192;40.182;44.516;2023-07-09T03:47:58;41.60;41.90
34989;DHT22;21192;40.182;44.516;2023-07-09T03:50:24;42.00;41.30
34989;DHT22;21192;40.182;44.516;2023-07-09T03:52:50;42.20;41.00
34989;DHT22;21192;40.182;44.516;2023-07-09T03:55:16;42.70;41.00
34989;DHT22;21192;40.182;44.516;2023-07-09T03:57:42;43.20;39.70
34989;DHT22;21192;40.182;44.516;2023-07-09T04:00:08;43.70;39.00
34989;DHT22;21192;40.182;44.516;2023-07-09T04:02:40;44.10;38.50
34989;DHT22;21192;40.182;44.516;2023-07-09T04:05:09;44.60;37.50
34989;DHT22;21192;40.182;44.516;2023-07-09T04:07:36;44.70;37.00
34989;DHT22;21192;40.182;44.516;2023-07-09T04:10:03;44.80;36.70
34989;DHT22;21192;40.182;44.516;2023-07-09T04:12:29;45.30;36.50
34989;DHT22;21192;40.182;44.516;2023-07-09T04:14:55;45.60;36.00
34989;DHT22;21192;40.182;44.516;2023-07-09T04:17:21;45.80;35.80
34989;DHT22;21192;40.182;44.516;2023-07-09T04:19:52;45.70;35.50
34989;DHT22;21192;40.182;44.516;2023-07-09T04:22:18;45.90;35.50
34989;DHT22;21192;40.182;44.516;2023-07-09T04:24:44;45.60;35.60
34989;DHT22;21192;40.182;44.516;2023-07-09T04:27:11;45.10;36.10
34989;DHT22;21192;40.182;44.516;2023-07-09T04:29:39;44.80;36.40
34989;DHT22;21192;40.182;44.516;2023-07-09T04:32:13;44.60;37.30
34989;DHT22;21192;40.182;44.516;2023-07-09T04:34:40;44.60;36.80
34989;DHT22;21192;40.182;44.516;2023-07-09T04:37:07;44.60;36.60
34989;DHT22;21192;40.182;44.516;2023-07-09T04:39:33;44.20;37.00
34989;DHT22;21192;40.182;44.516;2023-07-09T04:41:59;44.20;37.00
34989;DHT22;21192;40.182;44.516;2023-07-09T04:44:25;44.10;37.00
34989;DHT22;21192;40.182;44.516;2023-07-09T04:46:51;43.70;37.40
34989;DHT22;21192;40.182;44.516;2023-07-09T04:49:17;44.00;37.30
34989;DHT22;21192;40.182;44.516;2023-07-09T04:51:43;44.00;37.10
34989;DHT22;21192;40.182;44.516;2023-07-09T04:54:08;44.00;37.20
34989;DHT22;21192;40.182;44.516;2023-07-09T04:56:34;44.00;37.10
34989;DHT22;21192;40.182;44.516;2023-07-09T04:59:02;43.50;37.20
34989;DHT22;21192;40.182;44.516;2023-07-09T05:01:28;42.60;37.90
34989;DHT22;21192;40.182;44.516;2023-07-09T05:03:54;41.80;38.80
34989;DHT22;21192;40.182;44.516;2023-07-09T05:06:20;41.30;39.90
34989;DHT22;21192;40.182;44.516;2023-07-09T05:08:47;40.40;40.10
34989;DHT22;21192;40.182;44.516;2023-07-09T05:11:14;39.50;41.00
34989;DHT22;21192;40.182;44.516;2023-07-09T05:13:40;38.90;41.90
34989;DHT22;21192;40.182;44.516;2023-07-09T05:16:06;38.40;42.70
34989;DHT22;21192;40.182;44.516;2023-07-09T05:18:32;37.30;44.00
34989;DHT22;21192;40.182;44.516;2023-07-09T05:20:57;36.60;45.00
34989;DHT22;21192;40.182;44.516;2023-07-09T05:23:26;35.90;45.80
34989;DHT22;21192;40.182;44.516;2023-07-09T05:26:00;35.50;46.50
34989;DHT22;21192;40.182;44.516;2023-07-09T05:28:28;35.20;47.50
34989;DHT22;21192;40.182;44.516;2023-07-09T05:30:54;34.60;48.30
34989;DHT22;21192;40.182;44.516;2023-07-09T05:33:20;34.20;49.00
34989;DHT22;21192;40.182;44.516;2023-07-09T05:35:46;33.80;49.90
34989;DHT22;21192;40.182;44.516;2023-07-09T05:38:13;33.50;50.30
34989;DHT22;21192;40.182;44.516;2023-07-09T05:40:40;33.50;50.50
34989;DHT22;21192;40.182;44.516;2023-07-09T05:43:06;33.40;50.60
34989;DHT22;21192;40.182;44.516;2023-07-09T05:45:32;33.50;50.70
34989;DHT22;21192;40.182;44.516;2023-07-09T05:47:58;33.40;50.70
34989;DHT22;21192;40.182;44.516;2023-07-09T05:50:25;33.20;50.80
34989;DHT22;21192;40.182;44.516;2023-07-09T05:52:50;33.00;51.20
34989;DHT22;21192;40.182;44.516;2023-07-09T05:55:16;32.90;51.50
34989;DHT22;21192;40.182;44.516;2023-07-09T05:57:42;32.80;51.90
34989;DHT22;21192;40.182;44.516;2023-07-09T06:00:09;32.90;51.90
34989;DHT22;21192;40.182;44.516;2023-07-09T06:02:35;32.90;51.90
34989;DHT22;21192;40.182;44.516;2023-07-09T06:05:01;33.00;52.00
34989;DHT22;21192;40.182;44.516;2023-07-09T06:07:27;33.10;52.10
34989;DHT22;21192;40.182;44.516;2023-07-09T06:09:53;33.00;52.00
34989;DHT22;21192;40.182;44.516;2023-07-09T06:12:19;32.90;51.90
34989;DHT22;21192;40.182;44.516;2023-07-09T06:14:46;33.00;52.00
34989;DHT22;21192;40.182;44.516;2023-07-09T06:17:12;32.90;52.10
34989;DHT22;21192;40.182;44.516;2023-07-09T06:19:39;32.70;52.30
34989;DHT22;21192;40.182;44.516;2023-07-09T06:22:04;32.60;52.60
34989;DHT22;21192;40.182;44.516;2023-07-09T06:24:30;32.60;52.50
34989;DHT22;21192;40.182;44.516;2023-07-09T06:26:56;32.50;52.70
34989;DHT22;21192;40.182;44.516;2023-07-09T06:29:23;32.40;52.80
34989;DHT22;21192;40.182;44.516;2023-07-09T06:31:48;32.30;53.20
34989;DHT22;21192;40.182;44.516;2023-07-09T06:34:14;32.20;53.30
34989;DHT22;21192;40.182;44.516;2023-07-09T06:36:40;32.10;53.40
34989;DHT22;21192;40.182;44.516;2023-07-09T06:39:06;32.20;53.60
34989;DHT22;21192;40.182;44.516;2023-07-09T06:41:32;32.10;53.70
34989;DHT22;21192;40.182;44.516;2023-07-09T06:44:05;32.20;53.90
34989;DHT22;21192;40.182;44.516;2023-07-09T06:46:31;32.30;53.60
34989;DHT22;21192;40.182;44.516;2023-07-09T06:48:57;32.40;53.50
34989;DHT22;21192;40.182;44.516;2023-07-09T06:51:23;32.40;53.40
34989;DHT22;21192;40.182;44.516;2023-07-09T06:53:49;32.40;53.20
34989;DHT22;21192;40.182;44.516;2023-07-09T06:56:17;32.30;53.20
34989;DHT22;21192;40.182;44.516;2023-07-09T06:58:43;32.20;53.20
34989;DHT22;21192;40.182;44.516;2023-07-09T07:01:12;32.20;53.20
34989;DHT22;21192;40.182;44.516;2023-07-09T07:03:38;32.30;53.30
34989;DHT22;21192;40.182;44.516;2023-07-09T07:06:05;32.30;53.50
34989;DHT22;21192;40.182;44.516;2023-07-09T07:08:32;32.20;53.60
34989;DHT22;21192;40.182;44.516;2023-07-09T07:11:00;32.20;53.60
34989;DHT22;21192;40.182;44.516;2023-07-09T07:13:34;32.10;53.70
34989;DHT22;21192;40.182;44.516;2023-07-09T07:16:01;32.10;53.70
34989;DHT22;21192;40.182;44.516;2023-07-09T07:18:28;32.00;53.70
34989;DHT22;21192;40.182;44.516;2023-07-09T07:20:54;32.00;53.60
34989;DHT22;21192;40.182;44.516;2023-07-09T07:23:20;32.00;53.60
34989;DHT22;21192;40.182;44.516;2023-07-09T07:25:46;32.10;53.70
34989;DHT22;21192;40.182;44.516;2023-07-09T07:28:13;32.20;53.60
34989;DHT22;21192;40.182;44.516;2023-07-09T07:30:39;32.20;53.40
34989;DHT22;21192;40.182;44.516;2023-07-09T07:33:05;32.30;53.30
34989;DHT22;21192;40.182;44.516;2023-07-09T07:35:30;32.40;53.20
34989;DHT22;21192;40.182;44.516;2023-07-09T07:37:56;32.50;53.30
34989;DHT22;21192;40.182;44.516;2023-07-09T07:40:22;32.40;53.00
34989;DHT22;21192;40.182;44.516;2023-07-09T07:42:48;32.40;52.70
34989;DHT22;21192;40.182;44.516;2023-07-09T07:45:14;32.20;52.80
34989;DHT22;21192;40.182;44.516;2023-07-09T07:47:40;32.20;52.80
34989;DHT22;21192;40.182;44.516;2023-07-09T07:50:07;32.20;52.70
34989;DHT22;21192;40.182;44.516;2023-07-09T07:52:33;32.30;52.60
34989;DHT22;21192;40.182;44.516;2023-07-09T07:55:06;32.40;52.80
34989;DHT22;21192;40.182;44.516;2023-07-09T07:57:32;32.30;52.90
34989;DHT22;21192;40.182;44.516;2023-07-09T07:59:58;32.30;53.00
34989;DHT22;21192;40.182;44.516;2023-07-09T08:02:24;32.20;53.10
34989;DHT22;21192;40.182;44.516;2023-07-09T08:04:51;32.20;53.00
34989;DHT22;21192;40.182;44.516;2023-07-09T08:07:18;32.20;53.10
34989;DHT22;21192;40.182;44.516;2023-07-09T08:09:45;32.00;53.30
34989;DHT22;21192;40.182;44.516;2023-07-09T08:12:12;31.90;53.40
34989;DHT22;21192;40.182;44.516;2023-07-09T08:14:40;31.80;53.40
34989;DHT22;21192;40.182;44.516;2023-07-09T08:17:06;31.70;53.50
34989;DHT22;21192;40.182;44.516;2023-07-09T08:19:43;31.60;53.70
34989;DHT22;21192;40.182;44.516;2023-07-09T08:22:09;31.50;54.10
34989;DHT22;21192;40.182;44.516;2023-07-09T08:24:35;31.40;54.30
34989;DHT22;21192;40.182;44.516;2023-07-09T08:27:01;31.40;54.20
34989;DHT22;21192;40.182;44.516;2023-07-09T08:29:26;31.40;54.20
34989;DHT22;21192;40.182;44.516;2023-07-09T08:31:52;31.50;54.20
34989;DHT22;21192;40.182;44.516;2023-07-09T08:34:18;31.40;54.20
34989;DHT22;21192;40.182;44.516;2023-07-09T08:36:44;31.20;54.60
34989;DHT22;21192;40.182;44.516;2023-07-09T08:39:10;31.10;54.90
34989;DHT22;21192;40.182;44.516;2023-07-09T08:41:58;31.10;55.10
34989;DHT22;21192;40.182;44.516;2023-07-09T08:47:18;31.30;55.40
34989;DHT22;21192;40.182;44.516;2023-07-09T08:49:54;31.30;55.00
34989;DHT22;21192;40.182;44.516;2023-07-09T08:54:52;31.40;55.00
34989;DHT22;21192;40.182;44.516;2023-07-09T08:57:23;31.40;55.20
34989;DHT22;21192;40.182;44.516;2023-07-09T09:00:00;31.40;55.10
34989;DHT22;21192;40.182;44.516;2023-07-09T09:02:35;31.40;55.10
34989;DHT22;21192;40.182;44.516;2023-07-09T09:05:05;31.40;55.30
34989;DHT22;21192;40.182;44.516;2023-07-09T09:07:41;31.40;55.50
34989;DHT22;21192;40.182;44.516;2023-07-09T09:10:13;31.40;55.50
34989;DHT22;21192;40.182;44.516;2023-07-09T09:15:32;31.40;55.80
34989;DHT22;21192;40.182;44.516;2023-07-09T09:18:22;31.40;55.60
34989;DHT22;21192;40.182;44.516;2023-07-09T09:21:03;31.30;55.00
34989;DHT22;21192;40.182;44.516;2023-07-09T09:23:45;31.30;54.80
34989;DHT22;21192;40.182;44.516;2023-07-09T09:26:28;31.20;54.80
34989;DHT22;21192;40.182;44.516;2023-07-09T09:28:56;31.10;55.10
34989;DHT22;21192;40.182;44.516;2023-07-09T09:31:27;31.20;55.40
34989;DHT22;21192;40.182;44.516;2023-07-09T09:33:54;31.20;55.90
34989;DHT22;21192;40.182;44.516;2023-07-09T09:36:25;31.30;56.10
34989;DHT22;21192;40.182;44.516;2023-07-09T09:38:52;31.30;56.00
34989;DHT22;21192;40.182;44.516;2023-07-09T09:41:20;31.30;56.10
34989;DHT22;21192;40.182;44.516;2023-07-09T09:43:48;31.30;55.70
34989;DHT22;21192;40.182;44.516;2023-07-09T09:46:19;31.30;55.60
34989;DHT22;21192;40.182;44.516;2023-07-09T09:48:47;31.30;55.60
34989;DHT22;21192;40.182;44.516;2023-07-09T09:51:14;31.20;55.30
34989;DHT22;21192;40.182;44.516;2023-07-09T09:53:47;31.20;55.30
34989;DHT22;21192;40.182;44.516;2023-07-09T09:56:29;31.20;55.90
34989;DHT22;21192;40.182;44.516;2023-07-09T09:58:57;31.20;55.70
34989;DHT22;21192;40.182;44.516;2023-07-09T10:01:29;31.30;55.50
34989;DHT22;21192;40.182;44.516;2023-07-09T10:03:57;31.50;55.40
34989;DHT22;21192;40.182;44.516;2023-07-09T10:09:38;31.50;55.10
34989;DHT22;21192;40.182;44.516;2023-07-09T10:17:39;31.70;54.60
34989;DHT22;21192;40.182;44.516;2023-07-09T10:23:14;31.70;54.60
34989;DHT22;21192;40.182;44.516;2023-07-09T10:26:13;31.80;54.90
34989;DHT22;21192;40.182;44.516;2023-07-09T10:31:50;32.00;54.70
34989;DHT22;21192;40.182;44.516;2023-07-09T10:34:40;32.10;54.40
34989;DHT22;21192;40.182;44.516;2023-07-09T10:39:47;32.30;54.00
34989;DHT22;21192;40.182;44.516;2023-07-09T10:42:22;32.30;54.40
34989;DHT22;21192;40.182;44.516;2023-07-09T10:44:56;32.30;53.60
34989;DHT22;21192;40.182;44.516;2023-07-09T10:47:33;32.40;53.40
34989;DHT22;21192;40.182;44.516;2023-07-09T10:50:02;32.50;53.40
34989;DHT22;21192;40.182;44.516;2023-07-09T10:52:32;32.60;53.30
34989;DHT22;21192;40.182;44.516;2023-07-09T10:55:25;32.60;53.10
34989;DHT22;21192;40.182;44.516;2023-07-09T11:00:31;32.60;52.90
34989;DHT22;21192;40.182;44.516;2023-07-09T11:03:05;32.60;52.80
34989;DHT22;21192;40.182;44.516;2023-07-09T11:05:36;32.70;52.80
34989;DHT22;21192;40.182;44.516;2023-07-09T11:08:36;32.70;52.80
34989;DHT22;21192;40.182;44.516;2023-07-09T11:11:06;32.70;52.60
34989;DHT22;21192;40.182;44.516;2023-07-09T11:13:48;32.80;52.40
34989;DHT22;21192;40.182;44.516;2023-07-09T11:16:24;32.80;52.00
34989;DHT22;21192;40.182;44.516;2023-07-09T11:18:59;32.90;51.40
34989;DHT22;21192;40.182;44.516;2023-07-09T11:21:25;32.90;50.90
34989;DHT22;21192;40.182;44.516;2023-07-09T11:23:56;32.90;50.40
34989;DHT22;21192;40.182;44.516;2023-07-09T11:26:33;32.90;50.40
34989;DHT22;21192;40.182;44.516;2023-07-09T11:31:39;33.00;50.40
34989;DHT22;21192;40.182;44.516;2023-07-09T11:36:58;33.00;50.30
34989;DHT22;21192;40.182;44.516;2023-07-09T11:42:02;33.10;50.20
34989;DHT22;21192;40.182;44.516;2023-07-09T11:44:32;33.10;50.10
34989;DHT22;21192;40.182;44.516;2023-07-09T11:47:25;33.10;49.70
34989;DHT22;21192;40.182;44.516;2023-07-09T11:52:24;33.20;48.70
34989;DHT22;21192;40.182;44.516;2023-07-09T11:54:51;33.20;48.00
34989;DHT22;21192;40.182;44.516;2023-07-09T11:57:18;33.20;47.20
34989;DHT22;21192;40.182;44.516;2023-07-09T11:59:44;33.30;47.40
34989;DHT22;21192;40.182;44.516;2023-07-09T12:02:19;33.30;48.00
34989;DHT22;21192;40.182;44.516;2023-07-09T12:04:48;33.20;48.40
34989;DHT22;21192;40.182;44.516;2023-07-09T12:07:16;33.30;48.80
34989;DHT22;21192;40.182;44.516;2023-07-09T12:09:50;33.40;48.70
34989;DHT22;21192;40.182;44.516;2023-07-09T12:12:19;33.40;48.50
34989;DHT22;21192;40.182;44.516;2023-07-09T12:14:44;33.40;48.30
34989;DHT22;21192;40.182;44.516;2023-07-09T12:17:10;33.40;48.30
34989;DHT22;21192;40.182;44.516;2023-07-09T12:19:36;33.40;48.00
34989;DHT22;21192;40.182;44.516;2023-07-09T12:22:09;33.40;47.70
34989;DHT22;21192;40.182;44.516;2023-07-09T12:24:37;33.40;47.70
34989;DHT22;21192;40.182;44.516;2023-07-09T12:27:20;33.50;47.40
34989;DHT22;21192;40.182;44.516;2023-07-09T12:29:46;33.40;47.20
34989;DHT22;21192;40.182;44.516;2023-07-09T12:32:14;33.50;47.30
34989;DHT22;21192;40.182;44.516;2023-07-09T12:34:40;33.50;47.00
34989;DHT22;21192;40.182;44.516;2023-07-09T12:37:13;33.50;46.80
34989;DHT22;21192;40.182;44.516;2023-07-09T12:39:39;33.50;47.10
34989;DHT22;21192;40.182;44.516;2023-07-09T12:42:09;33.50;47.30
34989;DHT22;21192;40.182;44.516;2023-07-09T12:44:38;33.60;47.40
34989;DHT22;21192;40.182;44.516;2023-07-09T12:47:04;33.60;47.50
34989;DHT22;21192;40.182;44.516;2023-07-09T12:49:38;33.60;47.30
34989;DHT22;21192;40.182;44.516;2023-07-09T12:52:14;33.60;46.90
34989;DHT22;21192;40.182;44.516;2023-07-09T12:54:41;33.60;46.80
34989;DHT22;21192;40.182;44.516;2023-07-09T12:57:17;33.60;47.10
34989;DHT22;21192;40.182;44.516;2023-07-09T12:59:45;33.60;47.40
34989;DHT22;21192;40.182;44.516;2023-07-09T13:04:43;33.70;47.30
34989;DHT22;21192;40.182;44.516;2023-07-09T13:07:26;33.70;47.20
34989;DHT22;21192;40.182;44.516;2023-07-09T13:09:54;33.70;47.30
34989;DHT22;21192;40.182;44.516;2023-07-09T13:12:21;33.70;47.50
34989;DHT22;21192;40.182;44.516;2023-07-09T13:14:54;33.60;46.80
34989;DHT22;21192;40.182;44.516;2023-07-09T13:17:20;33.60;46.60
34989;DHT22;21192;40.182;44.516;2023-07-09T13:19:46;33.60;46.70
34989;DHT22;21192;40.182;44.516;2023-07-09T13:22:14;33.60;46.50
34989;DHT22;21192;40.182;44.516;2023-07-09T13:24:41;33.60;44.90
34989;DHT22;21192;40.182;44.516;2023-07-09T13:27:12;33.50;44.20
34989;DHT22;21192;40.182;44.516;2023-07-09T13:29:39;33.50;44.60
34989;DHT22;21192;40.182;44.516;2023-07-09T13:32:12;33.50;44.90
34989;DHT22;21192;40.182;44.516;2023-07-09T13:34:39;33.50;44.70
34989;DHT22;21192;40.182;44.516;2023-07-09T13:37:13;33.50;44.50
34989;DHT22;21192;40.182;44.516;2023-07-09T13:39:40;33.40;44.30
34989;DHT22;21192;40.182;44.516;2023-07-09T13:42:11;33.50;44.60
34989;DHT22;21192;40.182;44.516;2023-07-09T13:44:39;33.50;44.60
34989;DHT22;21192;40.182;44.516;2023-07-09T13:47:05;33.40;44.00
34989;DHT22;21192;40.182;44.516;2023-07-09T13:49:31;33.40;43.80
34989;DHT22;21192;40.182;44.516;2023-07-09T13:51:59;33.50;43.90
34989;DHT22;21192;40.182;44.516;2023-07-09T13:54:28;33.50;43.80
34989;DHT22;21192;40.182;44.516;2023-07-09T13:57:02;33.50;43.80
34989;DHT22;21192;40.182;44.516;2023-07-09T13:59:29;33.50;43.80
34989;DHT22;21192;40.182;44.516;2023-07-09T14:01:56;33.50;44.00
34989;DHT22;21192;40.182;44.516;2023-07-09T14:04:24;33.50;44.10
34989;DHT22;21192;40.182;44.516;2023-07-09T14:06:50;33.50;44.00
34989;DHT22;21192;40.182;44.516;2023-07-09T14:09:16;33.50;43.80
34989;DHT22;21192;40.182;44.516;2023-07-09T14:11:45;33.50;43.60
34989;DHT22;21192;40.182;44.516;2023-07-09T14:16:42;33.50;42.90
34989;DHT22;21192;40.182;44.516;2023-07-09T14:19:17;33.50;42.80
34989;DHT22;21192;40.182;44.516;2023-07-09T14:21:43;33.60;43.00
34989;DHT22;21192;40.182;44.516;2023-07-09T14:24:36;33.50;43.30
34989;DHT22;21192;40.182;44.516;2023-07-09T14:27:01;33.50;43.70
34989;DHT22;21192;40.182;44.516;2023-07-09T14:29:27;33.50;43.60
34989;DHT22;21192;40.182;44.516;2023-07-09T14:31:53;33.40;43.50
34989;DHT22;21192;40.182;44.516;2023-07-09T14:34:31;33.40;43.60
34989;DHT22;21192;40.182;44.516;2023-07-09T14:36:59;33.30;43.60
34989;DHT22;21192;40.182;44.516;2023-07-09T14:39:28;33.30;43.50
34989;DHT22;21192;40.182;44.516;2023-07-09T14:41:55;33.30;43.60
34989;DHT22;21192;40.182;44.516;2023-07-09T14:44:26;33.20;43.60
34989;DHT22;21192;40.182;44.516;2023-07-09T14:46:54;33.20;43.80
34989;DHT22;21192;40.182;44.516;2023-07-09T14:49:20;33.10;44.00
34989;DHT22;21192;40.182;44.516;2023-07-09T14:51:47;33.00;44.30
34989;DHT22;21192;40.182;44.516;2023-07-09T14:54:23;32.90;44.20
34989;DHT22;21192;40.182;44.516;2023-07-09T14:56:50;32.80;44.20
34989;DHT22;21192;40.182;44.516;2023-07-09T14:59:16;32.70;44.90
34989;DHT22;21192;40.182;44.516;2023-07-09T15:01:44;32.60;47.30
34989;DHT22;21192;40.182;44.516;2023-07-09T15:04:27;32.40;50.00
34989;DHT22;21192;40.182;44.516;2023-07-09T15:06:54;32.20;52.40
34989;DHT22;21192;40.182;44.516;2023-07-09T15:09:23;32.10;53.40
34989;DHT22;21192;40.182;44.516;2023-07-09T15:11:52;32.00;54.30
34989;DHT22;21192;40.182;44.516;2023-07-09T15:14:18;31.80;54.80
34989;DHT22;21192;40.182;44.516;2023-07-09T15:16:46;31.70;55.20
34989;DHT22;21192;40.182;44.516;2023-07-09T15:19:17;31.60;55.50
34989;DHT22;21192;40.182;44.516;2023-07-09T15:21:45;31.50;55.70
34989;DHT22;21192;40.182;44.516;2023-07-09T15:24:26;31.30;55.80
34989;DHT22;21192;40.182;44.516;2023-07-09T15:26:54;31.20;56.40
34989;DHT22;21192;40.182;44.516;2023-07-09T15:29:21;31.10;56.90
34989;DHT22;21192;40.182;44.516;2023-07-09T15:31:48;30.90;57.20
34989;DHT22;21192;40.182;44.516;2023-07-09T15:34:14;30.70;57.40
34989;DHT22;21192;40.182;44.516;2023-07-09T15:36:46;30.60;57.70
34989;DHT22;21192;40.182;44.516;2023-07-09T15:39:14;30.50;58.00
34989;DHT22;21192;40.182;44.516;2023-07-09T15:41:40;30.40;58.40
34989;DHT22;21192;40.182;44.516;2023-07-09T15:44:11;30.30;58.90
34989;DHT22;21192;40.182;44.516;2023-07-09T15:46:42;30.20;58.50
34989;DHT22;21192;40.182;44.516;2023-07-09T15:49:13;30.10;58.50
34989;DHT22;21192;40.182;44.516;2023-07-09T15:51:39;30.00;58.40
34989;DHT22;21192;40.182;44.516;2023-07-09T15:54:16;30.00;58.50
34989;DHT22;21192;40.182;44.516;2023-07-09T15:56:43;29.80;58.00
34989;DHT22;21192;40.182;44.516;2023-07-09T16:01:53;29.70;58.00
34989;DHT22;21192;40.182;44.516;2023-07-09T16:04:19;29.60;58.00
34989;DHT22;21192;40.182;44.516;2023-07-09T16:06:45;29.50;58.20
34989;DHT22;21192;40.182;44.516;2023-07-09T16:09:12;29.50;58.30
34989;DHT22;21192;40.182;44.516;2023-07-09T16:11:42;29.50;59.00
34989;DHT22;21192;40.182;44.516;2023-07-09T16:14:28;29.40;58.40
34989;DHT22;21192;40.182;44.516;2023-07-09T16:16:56;29.40;59.20